Time;durP1;ratioP1;P1;durP2;ratioP2;P2;SDS_P1;SDS_P2;PMS_P1;PMS_P2;Temp;Humidity;BMP_temperature;BMP_pressure;BME280_temperature;BME280_humidity;BME280_pressure;Samples;Min_cycle;Max_cycle;Signal;HPM_P1;HPM_P2
2021/03/23 06:31:45;;;;;;;36.68;16.67;;;;;;;3.36;58.81;100337.64;1773649;78;26978;-54
2021/03/23 06:34:23;;;;;;;18.05;8.08;;;;;;;3.45;58.83;100331.25;1785509;78;25405;-55
2021/03/23 06:36:51;;;;;;;18.32;6.50;;;;;;;3.61;59.00;100333.48;1788537;80;25710;-51
2021/03/23 06:39:21;;;;;;;13.58;6.33;;;;;;;3.74;58.96;100330.84;1788786;80;25454;-52
2021/03/23 06:42:03;;;;;;;15.03;7.03;;;;;;;3.84;58.75;100332.76;1789019;80;25527;-55
2021/03/23 06:44:37;;;;;;;17.30;6.70;;;;;;;3.95;58.60;100334.92;1788568;80;25333;-55
2021/03/23 06:47:06;;;;;;;18.85;7.22;;;;;;;4.05;58.46;100334.44;1788978;80;25265;-55
2021/03/23 06:49:36;;;;;;;12.65;6.30;;;;;;;4.15;58.32;100338.19;1788873;80;25957;-55
2021/03/23 06:52:24;;;;;;;17.35;6.95;;;;;;;4.27;58.30;100338.74;1788502;80;25739;-54
2021/03/23 06:55:20;;;;;;;17.30;7.05;;;;;;;4.42;58.42;100340.10;1809229;78;25480;-56
2021/03/23 06:57:47;;;;;;;17.55;7.33;;;;;;;4.66;58.51;100342.26;1785617;79;25981;-55
2021/03/23 07:00:20;;;;;;;16.30;7.28;;;;;;;4.89;57.77;100344.12;1789230;78;25265;-53
2021/03/23 07:02:55;;;;;;;16.70;8.48;;;;;;;4.99;57.46;100344.14;1788573;78;26162;-55
2021/03/23 07:05:34;;;;;;;14.47;7.35;;;;;;;5.11;57.72;100347.33;1787284;78;25551;-53
2021/03/23 07:08:06;;;;;;;19.52;7.35;;;;;;;5.29;57.42;100347.28;1785229;80;25316;-57
2021/03/23 07:10:39;;;;;;;13.95;7.00;;;;;;;5.43;57.05;100351.53;1782141;78;25503;-55
2021/03/23 07:13:06;;;;;;;16.07;6.70;;;;;;;5.50;56.64;100357.44;1777490;80;25509;-57
2021/03/23 07:15:36;;;;;;;11.97;6.65;;;;;;;5.55;56.37;100357.41;1777503;80;25770;-54
2021/03/23 07:18:14;;;;;;;19.05;7.83;;;;;;;5.62;56.29;100351.76;1777487;80;25454;-51
2021/03/23 07:20:49;;;;;;;22.77;8.20;;;;;;;6.03;57.54;100358.83;1776886;80;25477;-54
2021/03/23 07:23:24;;;;;;;16.50;7.37;;;;;;;6.50;56.85;100354.79;1777496;80;25267;-55
2021/03/23 07:25:50;;;;;;;13.95;6.47;;;;;;;6.96;55.99;100356.31;1777077;80;25416;-55
2021/03/23 07:28:33;;;;;;;13.68;6.87;;;;;;;7.45;55.30;100349.90;1824320;78;26578;-56
2021/03/23 07:31:14;;;;;;;15.05;7.17;;;;;;;7.86;54.75;100350.20;1820678;78;26485;-56
2021/03/23 07:34:04;;;;;;;18.20;7.35;;;;;;;8.26;54.64;100349.95;1789591;80;25296;-56
2021/03/23 07:36:48;;;;;;;14.13;6.37;;;;;;;8.57;53.26;100354.91;1789749;80;25325;-52
2021/03/23 07:39:29;;;;;;;13.08;6.62;;;;;;;9.13;52.91;100345.08;1789928;78;25630;-53
2021/03/23 07:42:28;;;;;;;21.02;7.72;;;;;;;9.45;52.06;100340.68;1785765;79;27133;-57
2021/03/23 07:45:09;;;;;;;19.35;9.30;;;;;;;9.61;51.97;100341.20;1752517;80;25521;-55
2021/03/23 07:47:47;;;;;;;20.62;9.20;;;;;;;9.61;50.34;100347.39;1779212;80;25467;-56
2021/03/23 07:50:35;;;;;;;20.37;9.15;;;;;;;9.76;50.44;100348.20;1783456;80;25509;-53
2021/03/23 07:53:17;;;;;;;16.65;6.97;;;;;;;10.17;51.04;100371.64;1783358;80;25454;-52
2021/03/23 07:55:47;;;;;;;12.18;6.67;;;;;;;10.60;49.89;100369.31;1776902;80;26192;-55
2021/03/23 07:58:40;;;;;;;14.87;6.97;;;;;;;11.18;49.80;100368.95;1783434;80;25698;-55
2021/03/23 08:01:47;;;;;;;14.68;6.97;;;;;;;11.38;48.69;100371.68;1758673;81;25451;-56
2021/03/23 08:04:17;;;;;;;16.07;7.83;;;;;;;11.79;48.21;100372.46;1779913;79;25349;-56
2021/03/23 08:07:10;;;;;;;15.32;7.17;;;;;;;12.27;46.58;100377.59;1786127;79;25454;-56
2021/03/23 08:09:54;;;;;;;13.68;7.05;;;;;;;13.06;46.18;100372.91;1777863;79;26025;-55
2021/03/23 08:12:48;;;;;;;15.95;7.30;;;;;;;13.50;44.94;100378.20;1789879;80;25318;-56
2021/03/23 08:15:38;;;;;;;15.32;7.85;;;;;;;13.91;44.14;100378.07;1789326;80;25525;-55
2021/03/23 08:18:33;;;;;;;13.38;6.80;;;;;;;14.51;44.04;100378.78;1789658;80;25526;-55
2021/03/23 08:21:25;;;;;;;14.15;6.05;;;;;;;14.84;43.18;100378.81;1789932;80;25439;-56
2021/03/23 08:24:18;;;;;;;15.25;7.85;;;;;;;15.05;42.38;100376.59;1789886;80;25770;-53
2021/03/23 08:27:18;;;;;;;13.85;7.17;;;;;;;15.67;42.53;100378.27;1789803;80;25542;-55
2021/03/23 08:29:59;;;;;;;11.03;6.20;;;;;;;15.92;41.66;100378.84;1790021;80;25270;-57
2021/03/23 08:33:00;;;;;;;13.75;6.87;;;;;;;16.27;40.92;100376.97;1800962;78;25305;-55
2021/03/23 08:35:50;;;;;;;11.10;6.47;;;;;;;16.50;40.64;100378.59;1805343;79;25597;-56
2021/03/23 08:38:35;;;;;;;15.18;7.35;;;;;;;16.99;40.01;100379.77;1760610;78;26646;-56
2021/03/23 08:41:30;;;;;;;13.90;6.62;;;;;;;17.00;38.41;100375.91;1783404;80;25526;-52
2021/03/23 08:43:57;;;;;;;13.25;7.45;;;;;;;16.91;36.78;100369.23;1773068;80;26194;-55
2021/03/23 08:46:31;;;;;;;15.40;7.47;;;;;;;17.03;38.55;100380.67;1783260;80;25442;-54
2021/03/23 08:49:03;;;;;;;16.07;7.75;;;;;;;17.27;37.80;100381.09;1752913;80;25363;-56
2021/03/23 08:51:33;;;;;;;14.93;7.83;;;;;;;17.42;37.48;100386.89;1783215;80;26252;-55
2021/03/23 08:54:07;;;;;;;12.95;7.60;;;;;;;17.46;37.14;100389.95;1783324;80;25533;-54
2021/03/23 08:56:51;;;;;;;13.80;7.60;;;;;;;17.72;37.52;100397.63;1783417;80;25630;-54
2021/03/23 08:59:38;;;;;;;13.22;6.65;;;;;;;18.06;37.49;100397.22;1783471;78;25912;-55
2021/03/23 09:02:13;;;;;;;11.88;5.90;;;;;;;18.34;36.44;100395.69;1756576;81;25504;-55
2021/03/23 09:04:42;;;;;;;11.38;6.25;;;;;;;18.51;36.36;100393.66;1769989;79;25918;-57
2021/03/23 09:07:20;;;;;;;10.25;6.45;;;;;;;19.06;36.39;100404.55;1789576;80;25578;-55
2021/03/23 09:09:50;;;;;;;11.40;5.83;;;;;;;19.64;36.07;100398.09;1789702;80;25457;-56
2021/03/23 09:12:41;;;;;;;12.70;5.80;;;;;;;19.85;34.33;100399.80;1789540;80;25492;-57
2021/03/23 09:15:21;;;;;;;12.50;6.25;;;;;;;20.05;34.29;100398.33;1790705;78;25552;-56
2021/03/23 09:18:07;;;;;;;9.30;5.85;;;;;;;20.33;34.24;100404.21;1796802;78;26756;-57
2021/03/23 09:20:42;;;;;;;13.43;6.72;;;;;;;20.71;33.96;100398.80;1814865;79;25378;-56
2021/03/23 09:23:26;;;;;;;11.38;7.12;;;;;;;21.07;33.64;100410.17;1793651;79;25413;-55
2021/03/23 09:26:04;;;;;;;13.62;7.03;;;;;;;21.41;32.82;100407.35;1781684;79;25510;-56
2021/03/23 09:28:46;;;;;;;10.82;6.40;;;;;;;21.55;32.07;100414.95;1812819;79;25496;-55
2021/03/23 09:31:31;;;;;;;14.33;7.00;;;;;;;21.50;31.34;100414.72;1815109;78;25774;-57
2021/03/23 09:33:59;;;;;;;10.98;6.65;;;;;;;21.31;30.91;100414.92;1806250;79;25462;-55
2021/03/23 09:36:37;;;;;;;12.95;7.33;;;;;;;21.21;31.67;100404.80;1806321;79;25264;-55
2021/03/23 09:39:30;;;;;;;12.40;6.83;;;;;;;21.28;31.94;100413.70;1806468;79;25340;-57
2021/03/23 09:42:23;;;;;;;9.75;6.03;;;;;;;21.59;31.78;100409.70;1802840;79;25503;-56
2021/03/23 09:45:13;;;;;;;7.75;5.80;;;;;;;21.54;31.03;100410.05;1797438;78;27023;-56
2021/03/23 09:48:01;;;;;;;15.00;5.67;;;;;;;21.17;30.88;100419.12;1793323;78;25521;-55
2021/03/23 09:50:42;;;;;;;9.63;5.37;;;;;;;21.13;30.99;100427.12;1767415;80;25774;-56
2021/03/23 09:53:22;;;;;;;9.20;5.55;;;;;;;20.91;30.84;100422.79;1783160;78;25557;-57
2021/03/23 09:55:50;;;;;;;8.88;5.03;;;;;;;20.86;31.12;100429.41;1791563;78;25457;-56
2021/03/23 09:58:26;;;;;;;13.13;5.70;;;;;;;20.76;31.19;100425.17;1791136;79;25696;-54
2021/03/23 10:01:12;;;;;;;10.28;6.33;;;;;;;20.53;31.07;100432.89;1792375;78;25407;-58
2021/03/23 10:03:40;;;;;;;11.00;6.05;;;;;;;19.93;31.09;100428.94;1777835;80;25489;-56
2021/03/23 10:06:25;;;;;;;10.60;5.90;;;;;;;19.43;31.57;100421.83;1776203;80;25597;-58
2021/03/23 10:09:06;;;;;;;14.93;6.87;;;;;;;19.11;31.91;100426.19;1758445;81;25503;-55
2021/03/23 10:11:43;;;;;;;13.90;6.85;;;;;;;18.61;31.52;100440.47;1722098;83;28035;-55
2021/03/23 10:14:19;;;;;;;10.70;5.70;;;;;;;17.99;32.13;100438.13;1758307;81;25559;-54
2021/03/23 10:16:46;;;;;;;12.23;6.55;;;;;;;17.63;32.80;100433.14;1758340;81;25472;-56
2021/03/23 10:19:23;;;;;;;11.80;6.37;;;;;;;17.44;33.30;100435.20;1744665;80;25573;-52
2021/03/23 10:21:53;;;;;;;13.53;7.05;;;;;;;17.15;33.32;100439.93;1767574;81;25590;-55
2021/03/23 10:24:25;;;;;;;13.72;7.65;;;;;;;16.74;33.54;100434.50;1767646;81;25717;-55
2021/03/23 10:26:55;;;;;;;11.00;7.22;;;;;;;16.57;34.03;100441.04;1767309;81;26250;-55
2021/03/23 10:29:30;;;;;;;15.18;8.78;;;;;;;16.43;34.57;100441.42;1745436;81;25551;-56
2021/03/23 10:32:00;;;;;;;13.05;7.30;;;;;;;16.36;35.13;100434.94;1782920;78;26072;-54
2021/03/23 10:34:31;;;;;;;12.63;7.28;;;;;;;16.30;35.18;100433.61;1816368;79;25512;-55
2021/03/23 10:37:08;;;;;;;13.78;6.65;;;;;;;15.97;35.00;100431.25;1816261;79;26616;-55
2021/03/23 10:39:49;;;;;;;11.18;5.42;;;;;;;15.63;35.33;100435.17;1816465;79;25689;-53
2021/03/23 10:42:26;;;;;;;10.43;5.35;;;;;;;15.57;35.87;100431.88;1816272;79;26048;-52
2021/03/23 10:45:27;;;;;;;11.35;5.62;;;;;;;15.47;36.01;100435.05;1816407;79;25594;-53
2021/03/23 10:48:19;;;;;;;9.80;5.22;;;;;;;15.35;36.06;100435.82;1816495;79;25579;-56
2021/03/23 10:50:50;;;;;;;8.05;5.12;;;;;;;15.16;36.16;100433.63;1816620;79;25952;-54
2021/03/23 10:53:23;;;;;;;7.55;4.87;;;;;;;14.97;36.35;100439.58;1813088;78;25578;-54
2021/03/23 10:55:52;;;;;;;9.43;5.50;;;;;;;14.72;36.10;100434.02;1800884;78;25466;-56
2021/03/23 10:58:26;;;;;;;11.10;5.62;;;;;;;14.39;36.43;100439.38;1803389;78;25537;-53
2021/03/23 11:01:17;;;;;;;9.08;5.12;;;;;;;14.07;36.75;100434.86;1789665;78;25534;-56
2021/03/23 11:03:47;;;;;;;9.60;5.30;;;;;;;13.85;37.43;100440.58;1786084;80;25698;-57
2021/03/23 11:06:36;;;;;;;9.60;5.25;;;;;;;13.65;37.85;100441.53;1786266;79;25513;-53
2021/03/23 11:09:07;;;;;;;11.95;5.15;;;;;;;13.46;38.17;100452.78;1786357;80;25496;-55
2021/03/23 11:11:35;;;;;;;8.68;4.78;;;;;;;13.19;38.45;100450.65;1788469;78;25303;-56
2021/03/23 11:14:03;;;;;;;9.90;4.90;;;;;;;12.95;38.64;100457.95;1796401;78;25538;-58
2021/03/23 11:16:32;;;;;;;8.45;5.08;;;;;;;12.71;39.18;100459.23;1786260;80;25758;-57
2021/03/23 11:19:02;;;;;;;9.25;5.28;;;;;;;12.51;39.58;100464.75;1786081;79;25618;-55
2021/03/23 11:21:34;;;;;;;9.00;5.62;;;;;;;12.28;39.89;100468.13;1786223;80;25606;-57
2021/03/23 11:24:01;;;;;;;8.93;4.78;;;;;;;12.09;40.47;100473.04;1786370;79;25465;-56
2021/03/23 11:26:31;;;;;;;7.75;4.45;;;;;;;11.88;40.78;100459.20;1755085;80;25518;-56
2021/03/23 11:29:02;;;;;;;10.38;4.92;;;;;;;11.70;41.07;100469.20;1755295;81;25763;-55
2021/03/23 11:31:31;;;;;;;12.20;5.47;;;;;;;11.61;41.54;100468.34;1780627;80;25486;-51
2021/03/23 11:33:59;;;;;;;;;;;;;;;11.54;41.79;100461.47;1805826;79;25553;-53
2021/03/23 11:36:28;;;;;;;9.70;4.70;;;;;;;11.48;42.06;100464.63;1805908;79;25465;-54
2021/03/23 11:38:56;;;;;;;11.63;5.53;;;;;;;11.39;42.26;100465.91;1811316;79;25425;-56
2021/03/23 11:41:37;;;;;;;8.38;4.92;;;;;;;11.30;42.45;100468.56;1811061;79;25699;-56
2021/03/23 11:44:13;;;;;;;9.63;4.70;;;;;;;11.21;42.83;100461.74;1810908;79;43088;-54
2021/03/23 11:47:02;;;;;;;10.85;5.12;;;;;;;11.23;43.10;100462.00;1849155;76;34612;-53
2021/03/23 11:49:56;;;;;;;11.40;5.05;;;;;;;11.18;43.35;100462.92;1818812;78;25572;-54
2021/03/23 11:52:25;;;;;;;11.18;5.45;;;;;;;11.18;43.58;100457.50;1819224;78;25772;-53
2021/03/23 11:54:52;;;;;;;13.10;7.47;;;;;;;11.19;44.17;100455.84;1845649;77;25511;-54
2021/03/23 11:57:20;;;;;;;12.95;6.90;;;;;;;11.25;44.33;100453.01;1849990;77;25504;-55
2021/03/23 11:59:49;;;;;;;9.35;5.67;;;;;;;11.29;44.51;100456.16;1841672;77;25577;-54
2021/03/23 12:02:16;;;;;;;12.18;5.45;;;;;;;11.32;44.48;100452.83;1846422;77;25515;-53
2021/03/23 12:04:44;;;;;;;12.25;6.00;;;;;;;11.27;44.15;100449.44;1800315;79;26013;-52
2021/03/23 12:07:38;;;;;;;12.30;5.75;;;;;;;11.20;44.24;100449.87;1750582;82;25595;-52
2021/03/23 12:10:22;;;;;;;10.88;6.28;;;;;;;11.12;44.54;100450.63;1746992;80;26193;-53
2021/03/23 12:13:17;;;;;;;7.75;5.30;;;;;;;11.11;44.86;100447.11;1618912;86;25697;-52
2021/03/23 12:15:58;;;;;;;9.53;5.20;;;;;;;11.11;45.05;100456.58;1633525;87;25597;-53
2021/03/23 12:18:26;;;;;;;18.62;6.67;;;;;;;11.08;44.91;100453.13;1637192;87;25836;-54
2021/03/23 12:20:59;;;;;;;14.23;7.53;;;;;;;11.08;44.93;100449.63;1675049;84;25677;-55
2021/03/23 12:23:27;;;;;;;13.70;5.95;;;;;;;11.08;45.20;100456.41;1663354;86;25602;-56
2021/03/23 12:25:56;;;;;;;11.25;5.90;;;;;;;11.08;45.24;100453.13;1663019;86;25385;-55
2021/03/23 12:28:23;;;;;;;15.63;7.17;;;;;;;11.09;45.24;100452.03;1663342;86;25519;-55
2021/03/23 12:30:50;;;;;;;12.78;7.37;;;;;;;11.11;45.37;100453.87;1670386;83;25783;-54
2021/03/23 12:33:16;;;;;;;12.43;5.78;;;;;;;11.11;45.09;100455.23;1724970;83;25713;-53
2021/03/23 12:35:43;;;;;;;11.38;6.05;;;;;;;11.03;45.02;100458.67;1725161;83;25533;-55
2021/03/23 12:38:12;;;;;;;13.03;7.70;;;;;;;10.95;45.22;100456.16;1701161;83;25717;-55
2021/03/23 12:40:40;;;;;;;12.60;6.53;;;;;;;10.93;45.46;100465.15;1688817;84;25593;-55
2021/03/23 12:43:10;;;;;;;22.67;7.85;;;;;;;10.92;45.45;100465.45;1689017;84;25803;-54
2021/03/23 12:45:41;;;;;;;14.35;7.50;;;;;;;10.85;45.72;100465.88;1656971;84;25714;-55
2021/03/23 12:48:10;;;;;;;14.28;6.90;;;;;;;10.82;45.88;100471.33;1688702;84;26287;-55
2021/03/23 12:50:37;;;;;;;10.70;6.78;;;;;;;10.81;46.13;100475.69;1783869;79;25573;-55
2021/03/23 12:53:07;;;;;;;13.22;6.22;;;;;;;10.75;46.16;100481.78;1816507;78;25505;-53
2021/03/23 12:55:36;;;;;;;9.98;5.25;;;;;;;10.69;46.22;100478.93;1805745;79;25734;-55
2021/03/23 12:58:05;;;;;;;12.15;5.35;;;;;;;10.64;46.25;100484.45;1803282;77;25540;-54
2021/03/23 13:00:36;;;;;;;12.47;5.70;;;;;;;10.58;46.26;100481.64;1798593;77;25671;-55
2021/03/23 13:03:04;;;;;;;12.15;5.35;;;;;;;10.52;46.29;100482.31;1786204;80;25526;-57
2021/03/23 13:05:32;;;;;;;8.93;5.47;;;;;;;10.49;46.25;100482.91;1799700;78;25553;-55
2021/03/23 13:08:04;;;;;;;9.93;5.72;;;;;;;10.46;46.37;100484.30;1818585;78;25782;-56
2021/03/23 13:10:38;;;;;;;16.27;6.60;;;;;;;10.48;46.56;100483.20;1815463;77;25415;-55
2021/03/23 13:13:18;;;;;;;15.85;6.90;;;;;;;10.54;46.75;100482.80;1875726;76;35076;-54
2021/03/23 13:15:46;;;;;;;18.40;8.98;;;;;;;10.48;46.72;100484.00;1844840;77;25767;-57
2021/03/23 13:18:16;;;;;;;19.35;7.05;;;;;;;10.51;46.83;100480.70;1845060;77;25720;-53
2021/03/23 13:20:42;;;;;;;16.93;6.72;;;;;;;10.55;46.75;100484.38;1845118;77;25552;-54
2021/03/23 13:23:14;;;;;;;19.17;7.22;;;;;;;10.57;46.39;100482.73;1845146;77;25552;-53
2021/03/23 13:25:43;;;;;;;11.75;5.95;;;;;;;10.51;46.12;100488.81;1802536;79;25576;-55
2021/03/23 13:28:36;;;;;;;12.80;6.08;;;;;;;10.45;46.23;100484.07;1781930;79;25511;-55
2021/03/23 13:31:03;;;;;;;13.22;6.55;;;;;;;10.44;46.54;100489.22;1800937;79;25714;-55
2021/03/23 13:33:31;;;;;;;12.25;5.25;;;;;;;10.44;46.65;100493.27;1773937;79;25699;-55
2021/03/23 13:35:58;;;;;;;12.05;6.30;;;;;;;10.46;46.71;100487.00;1788070;79;25500;-55
2021/03/23 13:38:28;;;;;;;13.53;7.37;;;;;;;10.46;46.77;100484.30;1791835;79;25446;-52
2021/03/23 13:40:55;;;;;;;14.93;7.03;;;;;;;10.46;46.82;100488.92;1782017;79;25359;-56
2021/03/23 13:43:21;;;;;;;10.70;6.10;;;;;;;10.48;47.16;100488.06;1792926;79;25831;-55
2021/03/23 13:46:02;;;;;;;13.95;6.78;;;;;;;10.48;47.10;100482.65;1787214;79;25537;-54
2021/03/23 13:48:31;;;;;;;12.50;5.97;;;;;;;10.45;47.24;100483.25;1782972;79;26382;-54
2021/03/23 13:51:02;;;;;;;8.73;5.12;;;;;;;10.45;47.23;100482.72;1771762;80;32711;-55
2021/03/23 13:53:34;;;;;;;8.78;4.60;;;;;;;10.44;46.89;100472.20;1770228;81;25595;-55
2021/03/23 13:56:03;;;;;;;12.15;5.30;;;;;;;10.43;46.98;100483.55;1801105;79;26560;-56
2021/03/23 13:58:30;;;;;;;11.50;4.77;;;;;;;10.38;46.71;100485.02;1802297;79;25739;-57
2021/03/23 14:00:57;;;;;;;10.93;4.80;;;;;;;10.32;46.63;100482.18;1801606;79;25563;-52
2021/03/23 14:07:31;;;;;;;10.10;4.87;;;;;;;10.25;46.70;100481.77;1783721;79;25400;-62
2021/03/23 14:10:01;;;;;;;11.05;5.17;;;;;;;10.17;46.79;100485.17;1781452;79;25780;-61
2021/03/23 14:12:31;;;;;;;11.25;5.37;;;;;;;10.13;47.03;100483.63;1819340;78;25259;-61
2021/03/23 14:14:58;;;;;;;10.80;5.30;;;;;;;10.14;47.10;100485.77;1819228;78;26170;-60
2021/03/23 14:17:28;;;;;;;9.83;5.33;;;;;;;10.15;47.37;100480.59;1819058;78;25516;-62
2021/03/23 14:19:58;;;;;;;11.40;5.62;;;;;;;10.18;47.45;100476.77;1819515;78;25331;-61
2021/03/23 14:22:32;;;;;;;10.80;5.60;;;;;;;10.23;47.52;100472.60;1791478;78;25687;-62
2021/03/23 14:25:03;;;;;;;13.22;5.90;;;;;;;10.28;47.75;100475.20;1788564;80;25558;-62
2021/03/23 14:27:30;;;;;;;10.03;5.67;;;;;;;10.34;47.77;100477.27;1820648;78;25491;-62
2021/03/23 14:29:57;;;;;;;14.87;6.35;;;;;;;10.42;47.90;100475.73;1788670;80;26141;-62
2021/03/23 14:32:23;;;;;;;19.42;9.20;;;;;;;10.36;47.89;100455.34;1822773;78;25310;-62
2021/03/23 14:34:50;;;;;;;15.48;6.67;;;;;;;10.53;47.98;100472.28;1835069;78;25709;-62
2021/03/23 14:37:17;;;;;;;11.55;5.85;;;;;;;10.58;47.95;100469.47;1835151;78;25546;-61
2021/03/23 14:39:49;;;;;;;11.00;5.80;;;;;;;10.64;47.98;100466.88;1834951;78;25340;-61
2021/03/23 14:42:20;;;;;;;10.15;5.67;;;;;;;10.66;47.67;100466.05;1812800;78;25549;-62
2021/03/23 14:44:47;;;;;;;10.60;6.20;;;;;;;10.70;47.68;100475.70;1750449;80;25573;-61
2021/03/23 14:47:25;;;;;;;12.80;7.28;;;;;;;10.69;47.70;100478.14;1791764;80;25760;-61
2021/03/23 14:49:54;;;;;;;12.33;6.67;;;;;;;10.69;47.59;100470.81;1788757;80;25593;-61
2021/03/23 14:52:28;;;;;;;13.55;7.47;;;;;;;10.69;47.67;100474.87;1788648;80;25611;-61
2021/03/23 14:54:58;;;;;;;12.80;6.65;;;;;;;10.69;47.72;100479.50;1788857;80;25631;-62
2021/03/23 14:57:27;;;;;;;;;;;;;;;10.66;47.68;100478.22;1791694;80;25545;-62
2021/03/23 14:59:55;;;;;;;12.20;5.65;;;;;;;10.65;47.71;100475.25;1788735;80;27281;-62
2021/03/23 15:02:23;;;;;;;12.98;6.72;;;;;;;10.62;47.82;100471.80;1788815;80;25528;-61
2021/03/23 15:04:49;;;;;;;14.30;6.95;;;;;;;10.59;47.99;100479.16;1788844;80;25587;-62
2021/03/23 15:07:37;;;;;;;14.40;7.08;;;;;;;10.58;48.15;100485.13;1786766;78;25589;-62
2021/03/23 15:10:07;;;;;;;13.30;7.90;;;;;;;10.57;48.10;100485.43;1772150;81;25453;-62
2021/03/23 15:12:34;;;;;;;17.45;7.45;;;;;;;10.52;48.10;100480.13;1755132;81;26737;-63
2021/03/23 15:15:04;;;;;;;15.10;7.17;;;;;;;10.49;48.26;100487.50;1782787;78;25810;-61
2021/03/23 15:17:31;;;;;;;20.72;9.13;;;;;;;10.41;48.23;100485.77;1795430;78;25585;-62
2021/03/23 15:19:58;;;;;;;18.65;9.18;;;;;;;10.36;48.36;100488.58;1826390;78;25508;-62
2021/03/23 15:22:28;;;;;;;20.70;9.20;;;;;;;10.30;48.43;100485.72;1800961;78;25549;-62
2021/03/23 15:24:56;;;;;;;16.93;8.53;;;;;;;10.25;48.51;100481.20;1799764;79;25917;-61
2021/03/23 15:27:24;;;;;;;18.67;7.92;;;;;;;10.20;48.71;100479.95;1813450;78;25610;-62
2021/03/23 15:29:51;;;;;;;15.58;8.78;;;;;;;10.16;48.71;100490.31;1813472;78;25602;-60
2021/03/23 15:32:18;;;;;;;17.23;9.65;;;;;;;10.11;48.85;100483.09;1813590;78;25526;-61
2021/03/23 15:34:45;;;;;;;20.90;8.88;;;;;;;10.07;48.83;100488.87;1813627;78;25647;-62
2021/03/23 15:37:22;;;;;;;22.52;11.43;;;;;;;10.02;48.94;100487.61;1813472;79;25741;-62
2021/03/23 15:39:49;;;;;;;20.60;10.72;;;;;;;9.98;49.06;100492.03;1811401;79;25621;-62
2021/03/23 15:42:21;;;;;;;20.95;9.45;;;;;;;9.93;49.31;100495.63;1813683;79;25534;-62
2021/03/23 15:44:49;;;;;;;16.20;8.80;;;;;;;9.90;49.54;100490.25;1813296;78;25561;-62
2021/03/23 15:47:16;;;;;;;15.03;8.28;;;;;;;9.86;49.54;100501.42;1807963;78;25408;-62
2021/03/23 15:49:43;;;;;;;15.35;8.20;;;;;;;9.83;49.44;100498.52;1790088;79;27204;-62
2021/03/23 15:52:11;;;;;;;13.58;6.67;;;;;;;9.80;49.54;100498.55;1772489;80;25558;-62
2021/03/23 15:54:39;;;;;;;15.27;6.33;;;;;;;9.77;49.61;100499.70;1773004;80;25577;-62
2021/03/23 15:57:08;;;;;;;14.15;6.47;;;;;;;9.68;49.57;100493.63;1772878;80;25489;-61
2021/03/23 16:02:14;;;;;;;11.35;6.35;;;;;;;9.67;49.75;100500.67;1849310;76;34552;-61
2021/03/23 16:04:41;;;;;;;14.85;7.60;;;;;;;9.57;49.80;100497.63;1812748;78;25307;-62
2021/03/23 16:07:20;;;;;;;14.53;7.33;;;;;;;9.53;49.87;100504.70;1766815;78;25772;-63
2021/03/23 16:09:47;;;;;;;19.23;10.20;;;;;;;9.49;49.96;100506.41;1819278;78;25439;-62
2021/03/23 16:12:23;;;;;;;21.87;11.50;;;;;;;9.46;49.91;100500.24;1819348;78;25242;-61
2021/03/23 16:14:56;;;;;;;34.53;17.32;;;;;;;9.42;49.96;100506.78;1819123;78;25662;-62
2021/03/23 16:17:28;;;;;;;35.13;16.02;;;;;;;9.38;49.98;100510.36;1814520;78;25563;-61
2021/03/23 16:19:54;;;;;;;26.30;15.10;;;;;;;9.31;49.99;100519.66;1786981;80;26173;-61
2021/03/23 16:22:21;;;;;;;25.05;12.23;;;;;;;9.27;49.98;100519.98;1827139;77;25510;-62
2021/03/23 16:24:47;;;;;;;15.85;9.38;;;;;;;9.24;50.06;100523.81;1853420;77;25484;-60
2021/03/23 16:27:14;;;;;;;16.87;9.25;;;;;;;9.19;50.47;100521.98;1853414;77;25397;-62
2021/03/23 16:29:40;;;;;;;18.80;10.05;;;;;;;9.15;50.37;100527.73;1853182;77;25463;-62
2021/03/23 16:32:11;;;;;;;17.10;8.90;;;;;;;9.11;50.49;100528.08;1784044;80;26435;-61
2021/03/23 16:34:42;;;;;;;20.82;9.15;;;;;;;9.06;50.65;100532.99;1799890;79;25572;-62
2021/03/23 16:37:24;;;;;;;17.27;8.18;;;;;;;9.03;50.81;100538.97;1783827;80;25528;-62
2021/03/23 16:39:52;;;;;;;13.93;8.38;;;;;;;8.98;50.65;100538.48;1799943;79;25555;-61
2021/03/23 16:42:21;;;;;;;14.87;8.10;;;;;;;8.93;50.77;100543.95;1784123;80;25315;-61
2021/03/23 16:44:48;;;;;;;18.23;9.28;;;;;;;8.89;50.99;100539.45;1765265;79;28646;-61
2021/03/23 16:47:16;;;;;;;16.50;7.83;;;;;;;8.85;50.87;100538.41;1756566;81;25584;-61
2021/03/23 16:49:43;;;;;;;19.80;10.07;;;;;;;8.79;51.17;100539.84;1761574;81;25571;-61
2021/03/23 16:52:10;;;;;;;20.72;9.38;;;;;;;8.74;51.21;100545.30;1743474;79;25665;-62
2021/03/23 16:54:38;;;;;;;13.72;8.48;;;;;;;8.70;51.34;100546.16;1733431;82;25188;-62
2021/03/23 16:57:07;;;;;;;18.25;9.78;;;;;;;8.66;51.43;100540.55;1734621;81;26830;-61
2021/03/23 16:59:34;;;;;;;19.62;9.35;;;;;;;8.62;51.70;100541.44;1753131;81;25644;-61
2021/03/23 17:02:01;;;;;;;22.98;9.03;;;;;;;8.56;51.65;100548.24;1765279;81;25287;-61
2021/03/23 17:04:27;;;;;;;15.13;8.55;;;;;;;8.51;51.84;100551.53;1751903;79;25512;-59
2021/03/23 17:06:53;;;;;;;13.75;7.97;;;;;;;8.49;51.97;100550.46;1752279;81;25477;-62
2021/03/23 17:09:20;;;;;;;17.92;7.72;;;;;;;8.45;52.16;100555.39;1751613;81;25781;-59
2021/03/23 17:11:46;;;;;;;17.62;7.60;;;;;;;8.40;52.04;100561.61;1752363;81;25518;-62
2021/03/23 17:14:25;;;;;;;13.70;7.72;;;;;;;8.35;52.30;100563.80;1751677;81;25546;-61
2021/03/23 17:16:52;;;;;;;11.80;6.97;;;;;;;8.32;52.25;100561.69;1752221;81;25477;-62
2021/03/23 17:19:20;;;;;;;16.52;7.00;;;;;;;8.27;52.53;100567.68;1752148;81;25474;-61
2021/03/23 17:21:48;;;;;;;13.95;6.53;;;;;;;8.23;52.66;100566.91;1751905;81;25897;-59
2021/03/23 17:24:15;;;;;;;13.45;6.55;;;;;;;8.18;52.56;100565.61;1755189;79;25324;-59
2021/03/23 17:26:41;;;;;;;14.70;6.83;;;;;;;8.14;52.60;100567.28;1757609;79;25608;-60
2021/03/23 17:29:08;;;;;;;13.22;6.83;;;;;;;8.10;52.66;100570.83;1744510;79;25492;-60
2021/03/23 17:31:34;;;;;;;16.95;9.10;;;;;;;8.06;52.93;100566.55;1744051;82;25258;-60
2021/03/23 17:34:03;;;;;;;14.98;8.40;;;;;;;8.01;53.20;100563.36;1744137;82;26618;-60
2021/03/23 17:36:29;;;;;;;13.32;7.97;;;;;;;7.98;53.44;100569.31;1740917;80;25677;-60
2021/03/23 17:38:56;;;;;;;18.30;8.03;;;;;;;7.94;53.31;100567.49;1731199;82;25263;-60
2021/03/23 17:41:23;;;;;;;15.75;7.97;;;;;;;7.91;53.30;100570.75;1718389;81;25563;-60
2021/03/23 17:43:49;;;;;;;17.42;9.70;;;;;;;7.88;53.24;100572.10;1743224;79;25500;-60
2021/03/23 17:46:16;;;;;;;26.27;11.08;;;;;;;7.85;53.44;100568.10;1748002;81;25804;-60
2021/03/23 17:48:43;;;;;;;24.60;11.30;;;;;;;7.80;53.60;100560.07;1731124;82;25306;-60
2021/03/23 17:51:10;;;;;;;25.02;12.15;;;;;;;7.76;53.80;100564.39;1730985;82;25574;-61
2021/03/23 17:53:40;;;;;;;23.02;10.40;;;;;;;7.72;53.75;100566.61;1731193;81;25637;-62
2021/03/23 17:56:08;;;;;;;;;;;;;;;7.67;53.85;100565.55;1733839;82;25539;-58
2021/03/23 17:58:34;;;;;;;22.82;10.98;;;;;;;7.63;53.73;100571.26;1730969;82;25872;-60
2021/03/23 18:01:02;;;;;;;24.25;12.45;;;;;;;7.59;53.88;100579.62;1712218;82;25697;-60
2021/03/23 18:03:33;;;;;;;20.95;11.97;;;;;;;7.55;53.99;100579.93;1738692;81;25490;-60
2021/03/23 18:06:00;;;;;;;24.00;11.50;;;;;;;7.51;53.94;100585.63;1752692;79;26216;-60
2021/03/23 18:08:28;;;;;;;25.15;12.13;;;;;;;7.47;54.13;100588.08;1746459;80;25529;-61
2021/03/23 18:10:55;;;;;;;25.27;11.15;;;;;;;7.44;54.12;100589.98;1730958;82;26565;-61
2021/03/23 18:13:27;;;;;;;23.18;11.45;;;;;;;7.41;54.28;100585.16;1730656;81;25572;-62
2021/03/23 18:15:54;;;;;;;29.85;11.95;;;;;;;7.38;54.23;100591.09;1730869;81;25440;-62
2021/03/23 18:18:21;;;;;;;29.48;12.43;;;;;;;7.35;54.53;100598.38;1731182;82;25486;-61
2021/03/23 18:20:49;;;;;;;31.35;16.12;;;;;;;7.32;54.67;100592.75;1730888;82;25334;-62
2021/03/23 18:23:16;;;;;;;31.97;13.70;;;;;;;7.28;54.87;100601.92;1731239;82;26625;-61
2021/03/23 18:25:44;;;;;;;33.18;18.30;;;;;;;7.24;54.99;100607.06;1731192;82;25449;-63
2021/03/23 18:28:12;;;;;;;36.93;19.32;;;;;;;7.20;55.08;100599.30;1731065;82;25457;-61